//
MetarTest
Metar LSZC 061720Z VRB02KT 9999 RA BKN050 09/08 Q1009
Taf LSME 061625Z 0617/0723 VRB02KT 9999 BKN027 TEMPO 0617/0621 25015G25KT SHRA FEW030TCU PROB40 TEMPO 0617/0621 25018G35KT PROB30 TEMPO 0618/0621 FEW025CB TEMPO 0707/0717 28012G25KT 4000 SHRA
Metar LSZH 061720Z 19008KT 9999 VCSH FEW009 SCT014 BKN045 10/08 Q1007 RERA TEMPO 4000 RA
Taf LSZH 061425Z 0615/0721 VRB02KT 9000 -RA FEW006 SCT013 OVC045 TX07/0615Z TN07/0704Z TX12/0714Z TEMPO 0615/0617 19010KT RA TEMPO 0617/0709 25015G25KT SHRA FEW030TCU PROB40 TEMPO 0617/0621 25018G35KT PROB30 TEMPO 0618/0622 FEW025CB BECMG 0709/0712 29010KT PROB30 TEMPO 0709/0714 SHRA PROB30 TEMPO 0710/0715 30015G25KT BECMG 0716/0719 VRB02KT
QNH LSZC 1009
Privacy Settings
We use cookies to enhance your experience while using our website. If you are using our Services via a browser you can restrict, block or remove cookies through your web browser settings. We also use content and scripts from third parties that may use tracking technologies. You can selectively provide your consent below to allow such third party embeds. For complete information about the cookies we use, data we collect and how we process them, please check our Privacy Policy
Youtube
Consent to display content from Youtube
Vimeo
Consent to display content from Vimeo
Google Maps
Consent to display content from Google